Geers Corners, New York
Current Conditions -  °F | °C
As of 2:58 AM on Thursday 29 Jan 2015 (Local Time) from KGTB Reporting Station
Clear Clear  
Wind Chill: -18°   Ceiling: Unl
Heat Index:   Visibility: 10mi
Dew Point: -8°   Wind: 15mph
Humidity: 65%   Direction: 140°SE
Pressure: 30.26"   Gusts: NA
Location:  44.1447°N, 75.2952°W
Report Text: KGTB 290758Z AUTO 14013KT 10SM CLR M17/M22 A3026 RMK AO2 SLP264 T11701221
Loading
Personal Weather Stations






























Interactive Weather Map New forecast layout! Learn more

10-Day Weather Forecast

Advertisements
Track Severe Weather on mobile